createdAt,value
2022-09-17T00:00:07.750Z,68.16
2022-09-17T00:01:07.679Z,68.00
2022-09-17T00:02:07.733Z,65.42
2022-09-17T00:03:07.707Z,65.26
2022-09-17T00:04:08.643Z,66.23
2022-09-17T00:05:07.636Z,64.13
2022-09-17T00:06:07.629Z,67.35
2022-09-17T00:07:07.618Z,66.71
2022-09-17T00:08:07.603Z,68.16
2022-09-17T00:09:07.615Z,70.25
2022-09-17T00:10:07.677Z,68.48
2022-09-17T00:11:07.574Z,64.94
2022-09-17T00:12:07.567Z,68.32
2022-09-17T00:13:07.674Z,65.42
2022-09-17T00:14:07.558Z,64.61
2022-09-17T00:15:07.530Z,65.10
2022-09-17T00:16:07.581Z,66.87
2022-09-17T00:17:07.511Z,67.84
2022-09-17T00:18:07.505Z,66.39
2022-09-17T00:19:07.535Z,68.32
2022-09-17T00:20:07.484Z,66.06
2022-09-17T00:21:07.476Z,65.26
2022-09-17T00:22:07.467Z,63.97
2022-09-17T00:23:07.455Z,64.94
2022-09-17T00:24:07.502Z,66.87
2022-09-17T00:25:07.437Z,68.96
2022-09-17T00:26:07.426Z,69.29
2022-09-17T00:27:07.419Z,63.49
2022-09-17T00:28:07.407Z,68.00
2022-09-17T00:29:07.480Z,63.65
2022-09-17T00:30:07.402Z,73.15
2022-09-17T00:31:07.417Z,72.03
2022-09-17T00:32:07.371Z,64.61
2022-09-17T00:33:07.359Z,68.80
2022-09-17T00:34:07.357Z,66.87
2022-09-17T00:35:07.380Z,67.84
2022-09-17T00:36:07.328Z,64.94
2022-09-17T00:37:07.325Z,67.84
2022-09-17T00:38:07.320Z,66.39
2022-09-17T00:39:07.305Z,68.96
2022-09-17T00:40:07.396Z,67.03
2022-09-17T00:41:07.284Z,68.64
2022-09-17T00:42:07.265Z,65.58
2022-09-17T00:43:08.264Z,66.06
2022-09-17T00:44:07.253Z,66.23
2022-09-17T00:45:07.325Z,68.32
2022-09-17T00:46:07.283Z,68.32
2022-09-17T00:47:07.224Z,66.55
2022-09-17T00:48:07.219Z,65.26
2022-09-17T00:49:07.207Z,65.42
2022-09-17T00:50:07.200Z,65.74
2022-09-17T00:51:07.202Z,63.97
2022-09-17T00:52:07.183Z,64.94
2022-09-17T00:53:07.167Z,63.97
2022-09-17T00:54:07.170Z,64.61
2022-09-17T00:55:07.152Z,68.48
2022-09-17T00:56:07.165Z,64.29
2022-09-17T00:57:07.132Z,66.55
2022-09-17T00:58:07.124Z,62.52
2022-09-17T00:59:07.125Z,67.19
2022-09-17T01:00:07.101Z,64.94
2022-09-17T01:01:07.243Z,65.74
2022-09-17T01:02:07.119Z,64.61
2022-09-17T01:03:07.076Z,64.61
2022-09-17T01:04:07.067Z,62.04
2022-09-17T01:05:07.057Z,62.20
2022-09-17T01:06:07.074Z,63.00
2022-09-17T01:07:07.040Z,68.64
2022-09-17T01:08:07.028Z,66.87
2022-09-17T01:09:07.032Z,66.39
2022-09-17T01:10:07.011Z,65.42
2022-09-17T01:11:07.003Z,63.81
2022-09-17T01:12:07.037Z,63.33
2022-09-17T01:13:06.977Z,65.10
2022-09-17T01:14:06.972Z,64.29
2022-09-17T01:15:06.961Z,63.33
2022-09-17T01:16:07.009Z,65.42
2022-09-17T01:17:07.034Z,66.06
2022-09-17T01:18:06.931Z,64.45
2022-09-17T01:19:06.918Z,58.49
2022-09-17T01:20:06.943Z,64.29
2022-09-17T01:21:06.912Z,63.16
2022-09-17T01:22:06.902Z,62.36
2022-09-17T01:23:06.875Z,64.13
2022-09-17T01:24:06.861Z,67.03
2022-09-17T01:25:06.853Z,64.13
2022-09-17T01:26:06.870Z,61.71
2022-09-17T01:27:06.852Z,64.45
2022-09-17T01:28:06.830Z,63.00
2022-09-17T01:29:06.817Z,63.49
2022-09-17T01:30:06.846Z,65.90
2022-09-17T01:31:06.852Z,63.49
2022-09-17T01:32:06.805Z,64.29
2022-09-17T01:33:06.851Z,62.84
2022-09-17T01:34:06.770Z,65.26
2022-09-17T01:35:06.754Z,63.00
2022-09-17T01:36:06.766Z,62.84
2022-09-17T01:37:06.757Z,64.13
2022-09-17T01:38:06.739Z,59.94
2022-09-17T01:39:06.718Z,61.71
2022-09-17T01:40:06.820Z,64.29
2022-09-17T01:41:06.714Z,62.04
2022-09-17T01:42:06.709Z,62.84
2022-09-17T01:43:06.738Z,61.55
2022-09-17T01:44:06.674Z,60.91
2022-09-17T01:45:06.663Z,60.42
2022-09-17T01:46:06.706Z,65.26
2022-09-17T01:47:06.655Z,63.33
2022-09-17T01:48:06.629Z,61.55
2022-09-17T01:49:06.711Z,60.91
2022-09-17T01:50:06.624Z,62.52
2022-09-17T01:51:06.613Z,62.52
2022-09-17T01:52:06.605Z,62.84
2022-09-17T01:53:06.580Z,62.52
2022-09-17T01:54:06.572Z,65.58
2022-09-17T01:55:06.558Z,63.49
2022-09-17T01:56:06.567Z,61.39
2022-09-17T01:57:06.590Z,63.16
2022-09-17T01:58:06.534Z,62.52
2022-09-17T01:59:06.517Z,61.55
2022-09-17T02:00:06.544Z,62.84
2022-09-17T02:01:06.629Z,61.87
2022-09-17T02:02:06.557Z,64.13
2022-09-17T02:03:06.485Z,63.16
2022-09-17T02:04:06.474Z,63.65
2022-09-17T02:05:06.550Z,62.20
2022-09-17T02:06:06.472Z,62.84
2022-09-17T02:07:06.443Z,62.36
2022-09-17T02:08:06.445Z,59.30
2022-09-17T02:09:06.426Z,63.16
2022-09-17T02:10:06.512Z,58.97
2022-09-17T02:11:06.403Z,63.65
2022-09-17T02:12:06.413Z,62.04
2022-09-17T02:13:06.383Z,62.04
2022-09-17T02:14:06.373Z,61.39
2022-09-17T02:15:06.363Z,62.20
2022-09-17T02:16:06.448Z,61.71
2022-09-17T02:17:06.341Z,61.23
2022-09-17T02:18:06.335Z,59.94
2022-09-17T02:19:06.325Z,59.94
2022-09-17T02:20:06.326Z,59.46
2022-09-17T02:21:06.380Z,60.59
2022-09-17T02:22:06.311Z,60.26
2022-09-17T02:23:06.278Z,60.42
2022-09-17T02:24:06.275Z,61.55
2022-09-17T02:25:06.265Z,62.20
2022-09-17T02:26:06.267Z,61.71
2022-09-17T02:27:06.246Z,62.36
2022-09-17T02:28:06.240Z,62.84
2022-09-17T02:29:06.226Z,59.94
2022-09-17T02:30:06.207Z,64.61
2022-09-17T02:31:07.295Z,62.20
2022-09-17T02:32:06.195Z,61.39
2022-09-17T02:33:06.185Z,59.94
2022-09-17T02:34:06.259Z,62.04
2022-09-17T02:35:06.160Z,60.59
2022-09-17T02:36:06.153Z,60.91
2022-09-17T02:37:06.234Z,58.65
2022-09-17T02:38:06.171Z,60.42
2022-09-17T02:39:06.121Z,62.68
2022-09-17T02:40:06.180Z,60.91
2022-09-17T02:41:06.103Z,59.46
2022-09-17T02:42:06.109Z,62.52
2022-09-17T02:43:06.079Z,60.42
2022-09-17T02:44:06.074Z,57.20
2022-09-17T02:45:06.065Z,58.97
2022-09-17T02:46:06.150Z,62.04
2022-09-17T02:47:06.060Z,61.39
2022-09-17T02:48:06.034Z,60.42
2022-09-17T02:49:06.018Z,61.23
2022-09-17T02:50:06.016Z,62.20
2022-09-17T02:51:06.004Z,57.20
2022-09-17T02:52:06.807Z,57.85
2022-09-17T02:53:06.060Z,61.39
2022-09-17T02:54:05.964Z,61.39
2022-09-17T02:55:05.954Z,57.20
2022-09-17T02:56:05.941Z,60.59
2022-09-17T02:57:05.973Z,61.39
2022-09-17T02:58:05.947Z,62.20
2022-09-17T02:59:05.914Z,60.75
2022-09-17T03:00:05.935Z,61.55
2022-09-17T03:01:05.938Z,60.42
2022-09-17T03:02:06.041Z,58.65
2022-09-17T03:03:05.874Z,59.46
2022-09-17T03:04:05.866Z,62.04
2022-09-17T03:05:05.854Z,58.17
2022-09-17T03:06:05.841Z,57.36
2022-09-17T03:07:05.839Z,60.26
2022-09-17T03:08:05.841Z,60.91
2022-09-17T03:09:05.896Z,60.42
2022-09-17T03:10:05.843Z,61.55
2022-09-17T03:11:05.797Z,60.10
2022-09-17T03:12:05.806Z,59.62
2022-09-17T03:13:05.775Z,58.81
2022-09-17T03:14:05.767Z,60.91
2022-09-17T03:15:05.756Z,60.42
2022-09-17T03:16:05.789Z,58.33
2022-09-17T03:17:05.730Z,59.14
2022-09-17T03:18:05.736Z,60.42
2022-09-17T03:19:05.711Z,60.91
2022-09-17T03:20:05.767Z,57.52
2022-09-17T03:21:05.692Z,57.20
2022-09-17T03:22:05.703Z,58.49
2022-09-17T03:23:05.671Z,58.65
2022-09-17T03:24:05.664Z,61.07
2022-09-17T03:25:06.731Z,57.36
2022-09-17T03:26:05.641Z,59.30
2022-09-17T03:27:05.634Z,56.72
2022-09-17T03:28:05.637Z,52.85
2022-09-17T03:29:05.612Z,56.56
2022-09-17T03:30:05.610Z,57.20
2022-09-17T03:31:05.685Z,56.24
2022-09-17T03:32:05.578Z,58.17
2022-09-17T03:33:05.580Z,57.85
2022-09-17T03:34:05.560Z,60.26
2022-09-17T03:35:05.549Z,58.97
2022-09-17T03:36:05.533Z,60.42
2022-09-17T03:37:05.520Z,60.26
2022-09-17T03:38:05.514Z,56.88
2022-09-17T03:39:05.521Z,56.72
2022-09-17T03:40:05.569Z,58.01
2022-09-17T03:41:05.568Z,59.30
2022-09-17T03:42:05.473Z,57.36
2022-09-17T03:43:05.461Z,59.78
2022-09-17T03:44:05.482Z,60.91
2022-09-17T03:45:05.449Z,59.94
2022-09-17T03:46:05.472Z,59.46
2022-09-17T03:47:05.419Z,60.75
2022-09-17T03:48:05.423Z,60.26
2022-09-17T03:49:05.411Z,58.33
2022-09-17T03:50:05.386Z,58.33
2022-09-17T03:51:05.381Z,57.85
2022-09-17T03:52:05.367Z,58.17
2022-09-17T03:53:05.353Z,59.14
2022-09-17T03:54:05.364Z,57.36
2022-09-17T03:55:05.342Z,58.17
2022-09-17T03:56:05.325Z,59.46
2022-09-17T03:57:05.412Z,59.46
2022-09-17T03:58:05.306Z,59.46
2022-09-17T03:59:05.295Z,57.69
2022-09-17T04:00:05.297Z,60.26
2022-09-17T04:01:05.286Z,57.85
2022-09-17T04:02:05.304Z,57.85
2022-09-17T04:03:05.288Z,58.81
2022-09-17T04:04:05.245Z,59.14
2022-09-17T04:05:05.263Z,57.85
2022-09-17T04:06:05.239Z,57.69
2022-09-17T04:07:05.215Z,57.52
2022-09-17T04:08:05.208Z,57.85
2022-09-17T04:09:05.197Z,60.59
2022-09-17T04:10:05.196Z,56.88
2022-09-17T04:11:05.175Z,59.14
2022-09-17T04:12:05.160Z,57.85
2022-09-17T04:13:05.238Z,56.56
2022-09-17T04:14:05.143Z,56.24
2022-09-17T04:15:05.157Z,56.40
2022-09-17T04:16:05.173Z,57.36
2022-09-17T04:17:05.116Z,58.17
2022-09-17T04:18:05.107Z,58.65
2022-09-17T04:19:05.100Z,57.04
2022-09-17T04:20:05.141Z,58.33
2022-09-17T04:21:05.078Z,58.97
2022-09-17T04:22:05.060Z,62.04
2022-09-17T04:23:05.054Z,61.23
2022-09-17T04:24:05.040Z,59.94
2022-09-17T04:25:05.033Z,57.52
2022-09-17T04:26:05.050Z,60.10
2022-09-17T04:27:05.010Z,59.30
2022-09-17T04:28:04.999Z,58.81
2022-09-17T04:29:05.073Z,58.81
2022-09-17T04:30:05.000Z,56.88
2022-09-17T04:31:05.015Z,59.94
2022-09-17T04:32:04.982Z,58.81
2022-09-17T04:33:04.955Z,60.42
2022-09-17T04:34:04.944Z,56.40
2022-09-17T04:35:04.927Z,59.46
2022-09-17T04:36:04.941Z,59.14
2022-09-17T04:37:04.915Z,56.88
2022-09-17T04:38:04.897Z,59.78
2022-09-17T04:39:04.894Z,61.23
2022-09-17T04:40:07.932Z,59.46
2022-09-17T04:41:05.866Z,60.10
2022-09-17T04:42:04.860Z,61.39
2022-09-17T04:43:04.842Z,57.85
2022-09-17T04:44:04.835Z,59.62
2022-09-17T04:45:04.910Z,57.52
2022-09-17T04:46:04.925Z,57.85
2022-09-17T04:47:04.804Z,56.72
2022-09-17T04:48:04.792Z,58.33
2022-09-17T04:49:04.792Z,60.59
2022-09-17T04:50:04.822Z,62.52
2022-09-17T04:51:04.781Z,59.14
2022-09-17T04:52:04.756Z,59.14
2022-09-17T04:53:04.741Z,60.75
2022-09-17T04:54:04.730Z,57.36
2022-09-17T04:55:04.720Z,59.14
2022-09-17T04:56:04.722Z,61.07
2022-09-17T04:57:04.695Z,58.97
2022-09-17T04:58:04.695Z,61.39
2022-09-17T04:59:04.667Z,61.07
2022-09-17T05:00:05.708Z,60.91
2022-09-17T05:01:04.886Z,58.65
2022-09-17T05:02:04.731Z,60.26
2022-09-17T05:03:04.638Z,62.52
2022-09-17T05:04:04.626Z,59.94
2022-09-17T05:05:04.617Z,59.14
2022-09-17T05:06:04.604Z,59.78
2022-09-17T05:07:04.608Z,60.26
2022-09-17T05:08:04.594Z,58.97
2022-09-17T05:09:04.586Z,58.33
2022-09-17T05:10:04.577Z,59.30
2022-09-17T05:11:04.547Z,57.85
2022-09-17T05:12:05.561Z,59.14
2022-09-17T05:13:04.537Z,58.49
2022-09-17T05:14:04.529Z,58.65
2022-09-17T05:15:04.519Z,58.49
2022-09-17T05:16:04.553Z,59.94
2022-09-17T05:17:04.594Z,60.91
2022-09-17T05:18:04.485Z,59.14
2022-09-17T05:19:04.474Z,59.46
2022-09-17T05:20:04.524Z,57.85
2022-09-17T05:21:04.456Z,57.36
2022-09-17T05:22:04.448Z,60.75
2022-09-17T05:23:04.449Z,58.49
2022-09-17T05:24:04.419Z,59.30
2022-09-17T05:25:04.412Z,57.36
2022-09-17T05:26:04.403Z,56.40
2022-09-17T05:27:04.404Z,58.49
2022-09-17T05:28:04.380Z,60.75
2022-09-17T05:29:04.365Z,59.14
2022-09-17T05:30:04.362Z,57.85
2022-09-17T05:31:04.389Z,60.26
2022-09-17T05:32:04.337Z,58.33
2022-09-17T05:33:04.425Z,58.97
2022-09-17T05:34:04.317Z,58.33
2022-09-17T05:35:05.776Z,58.33
2022-09-17T05:36:05.300Z,58.97
2022-09-17T05:37:04.284Z,60.59
2022-09-17T05:38:04.309Z,59.30
2022-09-17T05:39:04.271Z,58.17
2022-09-17T05:40:04.373Z,56.72
2022-09-17T05:41:04.259Z,58.49
2022-09-17T05:42:04.240Z,58.17
2022-09-17T05:43:04.267Z,57.20
2022-09-17T05:44:04.221Z,60.75
2022-09-17T05:45:04.205Z,59.62
2022-09-17T05:46:04.194Z,58.49
2022-09-17T05:47:04.186Z,58.65
2022-09-17T05:48:04.195Z,56.88
2022-09-17T05:49:04.264Z,57.20
2022-09-17T05:50:04.152Z,57.85
2022-09-17T05:51:04.148Z,58.97
2022-09-17T05:52:04.160Z,58.65
2022-09-17T05:53:04.118Z,59.46
2022-09-17T05:54:04.124Z,60.75
2022-09-17T05:55:04.115Z,56.56
2022-09-17T05:56:04.091Z,58.97
2022-09-17T05:57:04.075Z,57.20
2022-09-17T05:58:04.067Z,59.78
2022-09-17T05:59:04.074Z,58.81
2022-09-17T06:00:04.048Z,58.01
2022-09-17T06:01:04.035Z,56.72
2022-09-17T06:02:04.046Z,59.62
2022-09-17T06:03:04.081Z,60.10
2022-09-17T06:04:04.016Z,57.85
2022-09-17T06:05:05.076Z,58.81
2022-09-17T06:06:03.989Z,57.69
2022-09-17T06:07:03.984Z,59.78
2022-09-17T06:08:03.968Z,56.72
2022-09-17T06:09:03.963Z,57.04
2022-09-17T06:10:03.965Z,60.59
2022-09-17T06:11:03.938Z,60.42
2022-09-17T06:12:03.929Z,58.01
2022-09-17T06:13:03.922Z,58.97
2022-09-17T06:14:03.908Z,58.17
2022-09-17T06:15:03.918Z,59.46
2022-09-17T06:16:03.919Z,59.62
2022-09-17T06:17:03.881Z,61.23
2022-09-17T06:18:03.869Z,59.46
2022-09-17T06:19:03.860Z,59.94
2022-09-17T06:20:03.849Z,59.14
2022-09-17T06:21:03.956Z,58.33
2022-09-17T06:22:03.835Z,59.46
2022-09-17T06:23:03.820Z,59.62
2022-09-17T06:24:03.811Z,59.14
2022-09-17T06:25:03.801Z,58.17
2022-09-17T06:26:03.807Z,58.17
2022-09-17T06:27:03.784Z,57.85
2022-09-17T06:28:03.771Z,56.88
2022-09-17T06:29:03.763Z,58.49
2022-09-17T06:30:03.747Z,57.36
2022-09-17T06:31:03.780Z,58.33
2022-09-17T06:32:04.725Z,62.04
2022-09-17T06:33:03.715Z,60.42
2022-09-17T06:34:05.158Z,61.23
2022-09-17T06:35:03.699Z,58.33
2022-09-17T06:36:03.683Z,57.85
2022-09-17T06:37:03.765Z,59.46
2022-09-17T06:38:03.661Z,58.01
2022-09-17T06:39:03.660Z,57.36
2022-09-17T06:40:03.737Z,59.46
2022-09-17T06:41:03.631Z,58.33
2022-09-17T06:42:03.640Z,58.49
2022-09-17T06:43:03.608Z,59.30
2022-09-17T06:44:03.602Z,58.01
2022-09-17T06:45:08.128Z,57.52
2022-09-17T06:46:05.664Z,57.52
2022-09-17T06:47:03.587Z,59.62
2022-09-17T06:48:03.560Z,60.10
2022-09-17T06:49:03.552Z,62.04
2022-09-17T06:50:03.542Z,56.88
2022-09-17T06:51:03.536Z,57.85
2022-09-17T06:52:03.517Z,61.71
2022-09-17T06:53:03.608Z,61.55
2022-09-17T06:54:03.498Z,61.55
2022-09-17T06:55:03.493Z,63.00
2022-09-17T06:56:06.487Z,60.42
2022-09-17T06:57:04.476Z,58.97
2022-09-17T06:58:03.482Z,60.10
2022-09-17T06:59:03.452Z,60.91
2022-09-17T07:00:03.440Z,60.42
2022-09-17T07:01:03.453Z,59.14
2022-09-17T07:02:03.461Z,59.78
2022-09-17T07:03:03.437Z,61.39
2022-09-17T07:04:03.399Z,60.59
2022-09-17T07:05:03.390Z,60.26
2022-09-17T07:06:03.376Z,61.39
2022-09-17T07:07:03.367Z,62.04
2022-09-17T07:08:03.404Z,61.23
2022-09-17T07:09:05.931Z,61.39
2022-09-17T07:10:03.329Z,62.04
2022-09-17T07:11:03.326Z,61.23
2022-09-17T07:12:03.315Z,60.75
2022-09-17T07:13:03.304Z,60.91
2022-09-17T07:14:03.309Z,61.71
2022-09-17T07:15:03.288Z,62.04
2022-09-17T07:16:03.335Z,60.26
2022-09-17T07:17:03.262Z,60.59
2022-09-17T07:18:03.254Z,63.00
2022-09-17T07:19:03.275Z,62.04
2022-09-17T07:20:03.234Z,61.71
2022-09-17T07:21:03.218Z,62.04
2022-09-17T07:22:03.212Z,62.20
2022-09-17T07:23:03.196Z,63.16
2022-09-17T07:24:03.221Z,61.23
2022-09-17T07:25:03.261Z,60.75
2022-09-17T07:26:03.197Z,60.42
2022-09-17T07:27:03.154Z,62.04
2022-09-17T07:28:03.149Z,63.65
2022-09-17T07:29:03.147Z,63.16
2022-09-17T07:30:03.150Z,62.52
2022-09-17T07:31:03.172Z,61.71
2022-09-17T07:32:03.110Z,61.71
2022-09-17T07:33:03.097Z,63.00
2022-09-17T07:34:03.090Z,63.00
2022-09-17T07:35:03.095Z,62.68
2022-09-17T07:36:03.069Z,62.68
2022-09-17T07:37:03.055Z,61.07
2022-09-17T07:38:03.052Z,63.00
2022-09-17T07:39:03.038Z,63.33
2022-09-17T07:40:03.164Z,62.52
2022-09-17T07:41:03.095Z,63.49
2022-09-17T07:42:03.003Z,64.78
2022-09-17T07:43:02.992Z,62.36
2022-09-17T07:44:02.985Z,63.97
2022-09-17T07:45:02.977Z,63.49
2022-09-17T07:46:03.022Z,64.13
2022-09-17T07:47:02.976Z,63.49
2022-09-17T07:48:02.944Z,63.49
2022-09-17T07:49:03.198Z,61.39
2022-09-17T07:50:02.924Z,63.16
2022-09-17T07:51:02.939Z,61.39
2022-09-17T07:52:02.906Z,63.65
2022-09-17T07:53:02.892Z,62.36
2022-09-17T07:54:02.901Z,63.00
2022-09-17T07:55:02.875Z,61.39
2022-09-17T07:56:02.860Z,63.16
2022-09-17T07:57:02.950Z,63.65
2022-09-17T07:58:02.853Z,63.00
2022-09-17T07:59:02.839Z,63.81
2022-09-17T08:00:02.838Z,62.84
2022-09-17T08:01:02.823Z,62.52
2022-09-17T08:02:02.971Z,63.33
2022-09-17T08:03:02.909Z,63.97
2022-09-17T08:04:02.785Z,62.68
2022-09-17T08:05:02.775Z,66.23
2022-09-17T08:06:02.762Z,64.61
2022-09-17T08:07:02.798Z,64.29
2022-09-17T08:08:02.746Z,66.39
2022-09-17T08:09:02.733Z,65.42
2022-09-17T08:10:02.725Z,63.65
2022-09-17T08:11:02.713Z,64.94
2022-09-17T08:12:02.732Z,63.49
2022-09-17T08:13:02.780Z,65.74
2022-09-17T08:14:02.681Z,66.55
2022-09-17T08:15:02.672Z,63.16
2022-09-17T08:16:02.746Z,63.00
2022-09-17T08:17:02.652Z,66.71
2022-09-17T08:18:02.660Z,64.61
2022-09-17T08:19:02.631Z,63.00
2022-09-17T08:20:02.664Z,63.33
2022-09-17T08:21:02.611Z,64.61
2022-09-17T08:22:02.609Z,64.29
2022-09-17T08:23:02.624Z,64.94
2022-09-17T08:24:02.581Z,64.61
2022-09-17T08:25:02.576Z,63.81
2022-09-17T08:26:02.563Z,66.87
2022-09-17T08:27:02.557Z,66.06
2022-09-17T08:28:02.587Z,65.10
2022-09-17T08:29:02.622Z,64.61
2022-09-17T08:30:02.550Z,63.16
2022-09-17T08:31:02.551Z,66.55
2022-09-17T08:32:02.507Z,65.90
2022-09-17T08:33:02.495Z,64.61
2022-09-17T08:34:02.504Z,65.42
2022-09-17T08:35:02.476Z,64.61
2022-09-17T08:36:02.463Z,66.23
2022-09-17T08:37:02.453Z,68.16
2022-09-17T08:38:02.440Z,63.81
2022-09-17T08:39:02.448Z,66.55
2022-09-17T08:40:02.536Z,65.74
2022-09-17T08:41:02.415Z,65.74
2022-09-17T08:42:02.408Z,66.06
2022-09-17T08:43:02.436Z,66.87
2022-09-17T08:44:02.398Z,67.35
2022-09-17T08:45:02.463Z,65.58
2022-09-17T08:46:02.371Z,68.96
2022-09-17T08:47:02.361Z,63.49
2022-09-17T08:48:02.346Z,65.58
2022-09-17T08:49:02.352Z,65.42
2022-09-17T08:50:02.329Z,64.13
2022-09-17T08:51:06.643Z,64.13
2022-09-17T08:52:04.305Z,63.16
2022-09-17T08:53:02.292Z,66.39
2022-09-17T08:54:02.314Z,65.90
2022-09-17T08:55:02.275Z,68.48
2022-09-17T08:56:02.265Z,66.23
2022-09-17T08:57:02.254Z,67.03
2022-09-17T08:58:02.246Z,65.58
2022-09-17T08:59:02.286Z,65.58
2022-09-17T09:00:02.247Z,66.06
2022-09-17T09:01:02.302Z,66.71
2022-09-17T09:02:02.289Z,66.39
2022-09-17T09:03:02.278Z,65.58
2022-09-17T09:04:02.182Z,65.90
2022-09-17T09:05:02.217Z,66.39
2022-09-17T09:06:02.164Z,69.29
2022-09-17T09:07:02.152Z,68.80
2022-09-17T09:08:02.138Z,67.51
2022-09-17T09:09:02.134Z,67.51
2022-09-17T09:10:02.140Z,67.03
2022-09-17T09:11:02.111Z,66.71
2022-09-17T09:12:02.100Z,67.19
2022-09-17T09:13:02.093Z,68.48
2022-09-17T09:14:02.079Z,66.87
2022-09-17T09:15:02.094Z,67.19
2022-09-17T09:16:02.098Z,65.58
2022-09-17T09:17:02.129Z,67.19
2022-09-17T09:18:02.030Z,66.71
2022-09-17T09:19:02.021Z,65.90
2022-09-17T09:20:02.058Z,66.23
2022-09-17T09:21:02.001Z,66.06
2022-09-17T09:22:01.983Z,66.87
2022-09-17T09:23:02.982Z,63.97
2022-09-17T09:24:01.972Z,66.71
2022-09-17T09:25:02.004Z,65.90
2022-09-17T09:26:01.960Z,64.61
2022-09-17T09:27:01.952Z,66.23
2022-09-17T09:28:01.938Z,63.65
2022-09-17T09:29:01.935Z,68.48
2022-09-17T09:30:01.990Z,71.70
2022-09-17T09:31:01.933Z,66.06
2022-09-17T09:32:01.899Z,64.13
2022-09-17T09:33:01.969Z,65.10
2022-09-17T09:34:01.867Z,65.74
2022-09-17T09:35:02.891Z,67.35
2022-09-17T09:36:01.846Z,65.90
2022-09-17T09:37:01.845Z,65.10
2022-09-17T09:38:01.829Z,66.39
2022-09-17T09:39:01.817Z,66.87
2022-09-17T09:40:01.864Z,67.68
2022-09-17T09:41:01.812Z,68.16
2022-09-17T09:42:01.786Z,68.48
2022-09-17T09:43:01.788Z,67.03
2022-09-17T09:44:04.426Z,70.09
2022-09-17T09:45:05.177Z,67.35
2022-09-17T09:46:02.771Z,67.35
2022-09-17T09:47:01.846Z,70.09
2022-09-17T09:48:01.724Z,67.03
2022-09-17T09:49:01.800Z,68.00
2022-09-17T09:50:01.706Z,67.03
2022-09-17T09:51:06.691Z,69.45
2022-09-17T09:52:03.701Z,67.84
2022-09-17T09:53:01.677Z,63.81
2022-09-17T09:54:01.664Z,67.68
2022-09-17T09:55:01.663Z,64.45
2022-09-17T09:56:01.659Z,69.45
2022-09-17T09:57:01.650Z,67.51
2022-09-17T09:58:01.622Z,65.10
2022-09-17T09:59:01.668Z,68.48
2022-09-17T10:00:01.610Z,70.58
2022-09-17T10:01:01.614Z,68.32
2022-09-17T10:02:01.716Z,67.35
2022-09-17T10:03:01.622Z,65.58
2022-09-17T10:04:01.561Z,65.90
2022-09-17T10:05:01.638Z,67.03
2022-09-17T10:06:01.557Z,64.78
2022-09-17T10:07:01.548Z,68.32
2022-09-17T10:08:01.524Z,64.13
2022-09-17T10:09:01.512Z,65.58
2022-09-17T10:10:01.512Z,68.00
2022-09-17T10:11:01.514Z,62.52
2022-09-17T10:12:01.497Z,68.80
2022-09-17T10:13:01.471Z,65.26
2022-09-17T10:14:01.458Z,64.13
2022-09-17T10:15:01.451Z,64.45
2022-09-17T10:16:01.478Z,63.16
2022-09-17T10:17:01.445Z,66.39
2022-09-17T10:18:01.424Z,63.33
2022-09-17T10:19:01.410Z,63.49
2022-09-17T10:20:01.400Z,65.26
2022-09-17T10:21:01.519Z,65.90
2022-09-17T10:22:01.394Z,65.74
2022-09-17T10:23:01.364Z,63.97
2022-09-17T10:24:01.359Z,69.77
2022-09-17T10:25:01.343Z,65.10
2022-09-17T10:26:01.342Z,63.49
2022-09-17T10:27:01.340Z,63.65
2022-09-17T10:28:01.317Z,65.10
2022-09-17T10:29:01.379Z,66.39
2022-09-17T10:30:01.300Z,66.87
2022-09-17T10:31:05.141Z,66.87
2022-09-17T10:32:02.299Z,65.58
2022-09-17T10:33:01.270Z,68.16
2022-09-17T10:34:01.260Z,65.10
2022-09-17T10:35:01.250Z,65.58
2022-09-17T10:36:01.241Z,67.51
2022-09-17T10:37:01.324Z,67.03
2022-09-17T10:38:01.219Z,63.81
2022-09-17T10:39:01.216Z,66.87
2022-09-17T10:40:01.272Z,65.90
2022-09-17T10:41:01.193Z,68.32
2022-09-17T10:42:01.212Z,64.94
2022-09-17T10:43:02.164Z,63.97
2022-09-17T10:44:01.253Z,63.97
2022-09-17T10:45:01.143Z,67.19
2022-09-17T10:46:01.136Z,69.61
2022-09-17T10:47:01.215Z,66.23
2022-09-17T10:48:01.136Z,69.13
2022-09-17T10:49:01.116Z,66.71
2022-09-17T10:50:01.103Z,68.96
2022-09-17T10:51:01.085Z,66.55
2022-09-17T10:52:01.077Z,64.61
2022-09-17T10:53:01.161Z,67.84
2022-09-17T10:54:01.057Z,67.03
2022-09-17T10:55:01.047Z,65.74
2022-09-17T10:56:01.042Z,68.80
2022-09-17T10:57:01.029Z,69.29
2022-09-17T10:58:01.073Z,68.00
2022-09-17T10:59:01.059Z,69.29
2022-09-17T11:00:00.995Z,70.74
2022-09-17T11:01:00.983Z,67.35
2022-09-17T11:02:01.009Z,66.23
2022-09-17T11:03:01.066Z,66.55
2022-09-17T11:04:00.954Z,68.32
2022-09-17T11:05:00.944Z,66.71
2022-09-17T11:06:00.942Z,69.61
2022-09-17T11:07:00.927Z,68.48
2022-09-17T11:08:00.916Z,68.16
2022-09-17T11:09:01.006Z,65.26
2022-09-17T11:10:00.910Z,67.19
2022-09-17T11:11:00.887Z,69.45
2022-09-17T11:12:00.874Z,67.68
2022-09-17T11:13:00.870Z,71.06
2022-09-17T11:14:00.975Z,66.71
2022-09-17T11:15:00.860Z,68.00
2022-09-17T11:16:00.875Z,69.77
2022-09-17T11:17:01.834Z,66.23
2022-09-17T11:18:00.825Z,67.19
2022-09-17T11:19:00.841Z,69.13
2022-09-17T11:20:00.797Z,67.51
2022-09-17T11:21:00.793Z,65.74
2022-09-17T11:22:00.781Z,67.19
2022-09-17T11:23:00.772Z,65.90
2022-09-17T11:24:00.764Z,65.74
2022-09-17T11:25:00.881Z,67.51
2022-09-17T11:26:01.291Z,65.90
2022-09-17T11:27:01.734Z,65.74
2022-09-17T11:28:00.750Z,68.16
2022-09-17T11:29:00.847Z,64.94
2022-09-17T11:30:00.732Z,66.06
2022-09-17T11:31:00.765Z,64.13
2022-09-17T11:32:00.766Z,66.55
2022-09-17T11:33:00.674Z,67.19
2022-09-17T11:34:00.664Z,65.26
2022-09-17T11:35:00.695Z,67.84
2022-09-17T11:36:00.649Z,65.26
2022-09-17T11:37:00.634Z,65.58
2022-09-17T11:38:00.626Z,65.74
2022-09-17T11:39:00.613Z,69.45
2022-09-17T11:40:00.661Z,69.13
2022-09-17T11:41:00.721Z,68.64
2022-09-17T11:42:00.597Z,68.64
2022-09-17T11:43:00.571Z,70.42
2022-09-17T11:44:00.644Z,66.23
2022-09-17T11:45:00.562Z,67.51
2022-09-17T11:46:00.559Z,68.96
2022-09-17T11:47:00.568Z,69.13
2022-09-17T11:48:00.537Z,72.03
2022-09-17T11:49:00.512Z,67.84
2022-09-17T11:50:00.506Z,67.68
2022-09-17T11:51:00.508Z,67.51
2022-09-17T11:52:00.482Z,68.48
2022-09-17T11:53:00.497Z,68.80
2022-09-17T11:54:00.465Z,69.77
2022-09-17T11:55:00.459Z,66.39
2022-09-17T11:56:00.484Z,65.74
2022-09-17T11:57:00.516Z,65.74
2022-09-17T11:58:00.422Z,68.48
2022-09-17T11:59:00.589Z,67.19
2022-09-17T12:00:00.409Z,70.58
2022-09-17T12:01:00.436Z,68.48
2022-09-17T12:02:00.427Z,68.80
2022-09-17T12:03:00.443Z,68.64
2022-09-17T12:04:00.366Z,66.87
2022-09-17T12:05:00.359Z,68.48
2022-09-17T12:06:00.348Z,68.16
2022-09-17T12:07:00.356Z,68.16
2022-09-17T12:08:00.329Z,67.51
2022-09-17T12:09:00.322Z,68.80
2022-09-17T12:10:00.311Z,70.90
2022-09-17T12:11:00.302Z,68.32
2022-09-17T12:12:00.313Z,67.03
2022-09-17T12:13:00.368Z,67.51
2022-09-17T12:14:00.410Z,68.48
2022-09-17T12:15:00.263Z,66.39
2022-09-17T12:16:00.302Z,66.39
2022-09-17T12:17:00.271Z,66.71
2022-09-17T12:18:27.877Z,67.35
2022-09-17T12:19:02.221Z,67.19
2022-09-17T12:20:00.210Z,67.35
2022-09-17T12:21:00.202Z,66.23
2022-09-17T12:22:00.238Z,67.03
2022-09-17T12:23:00.179Z,67.68
2022-09-17T12:24:00.168Z,67.19
2022-09-17T12:25:00.173Z,70.42
2022-09-17T12:26:00.157Z,67.03
2022-09-17T12:27:00.142Z,68.16
2022-09-17T12:28:00.145Z,66.55
2022-09-17T12:29:00.384Z,67.68
2022-09-17T12:30:00.763Z,66.39
2022-09-17T12:31:01.181Z,65.58
2022-09-17T12:32:00.091Z,65.10
2022-09-17T12:33:00.100Z,65.42
2022-09-17T12:34:00.078Z,67.35
2022-09-17T12:35:00.078Z,67.51
2022-09-17T12:36:04.496Z,65.74
2022-09-17T12:37:02.039Z,66.06
2022-09-17T12:38:00.067Z,66.71
2022-09-17T12:39:03.155Z,67.68
2022-09-17T12:40:01.061Z,65.10
2022-09-17T12:40:59.995Z,66.55
2022-09-17T12:41:59.985Z,69.45
2022-09-17T12:43:00.009Z,70.74
2022-09-17T12:44:00.013Z,68.64
2022-09-17T12:45:00.050Z,68.00
2022-09-17T12:45:59.954Z,68.00
2022-09-17T12:46:59.974Z,67.19
2022-09-17T12:47:59.932Z,67.03
2022-09-17T12:48:59.941Z,65.42
2022-09-17T12:49:59.914Z,68.64
2022-09-17T12:50:59.904Z,68.16
2022-09-17T12:51:59.898Z,64.94